sensor_id;sensor_type;location;lat;lon;timestamp;P1;durP1;ratioP1;P2;durP2;ratioP2
45388;SDS011;31127;52.078;4.370;2023-06-22T00:01:55;16.63;;;10.77;;
45388;SDS011;31127;52.078;4.370;2023-06-22T00:07:10;17.95;;;9.73;;
45388;SDS011;31127;52.078;4.370;2023-06-22T00:12:06;17.98;;;10.85;;
45388;SDS011;31127;52.078;4.370;2023-06-22T00:17:02;19.33;;;11.07;;
45388;SDS011;31127;52.078;4.370;2023-06-22T00:21:58;16.08;;;10.20;;
45388;SDS011;31127;52.078;4.370;2023-06-22T00:27:13;24.42;;;11.30;;
45388;SDS011;31127;52.078;4.370;2023-06-22T00:32:08;16.87;;;9.87;;
45388;SDS011;31127;52.078;4.370;2023-06-22T00:37:04;21.83;;;10.80;;
45388;SDS011;31127;52.078;4.370;2023-06-22T00:41:59;19.25;;;10.55;;
45388;SDS011;31127;52.078;4.370;2023-06-22T00:46:55;18.53;;;11.30;;
45388;SDS011;31127;52.078;4.370;2023-06-22T00:51:50;15.30;;;9.90;;
45388;SDS011;31127;52.078;4.370;2023-06-22T00:56:46;15.55;;;10.07;;
45388;SDS011;31127;52.078;4.370;2023-06-22T01:01:41;16.65;;;10.45;;
45388;SDS011;31127;52.078;4.370;2023-06-22T01:06:38;21.10;;;11.77;;
45388;SDS011;31127;52.078;4.370;2023-06-22T01:11:37;23.23;;;12.02;;
45388;SDS011;31127;52.078;4.370;2023-06-22T01:16:35;25.15;;;11.35;;
45388;SDS011;31127;52.078;4.370;2023-06-22T01:21:30;16.75;;;10.32;;
45388;SDS011;31127;52.078;4.370;2023-06-22T01:32:01;19.92;;;10.98;;
45388;SDS011;31127;52.078;4.370;2023-06-22T01:36:57;20.65;;;12.07;;
45388;SDS011;31127;52.078;4.370;2023-06-22T01:41:53;21.23;;;11.95;;
45388;SDS011;31127;52.078;4.370;2023-06-22T01:46:49;19.75;;;11.35;;
45388;SDS011;31127;52.078;4.370;2023-06-22T01:51:45;18.30;;;11.10;;
45388;SDS011;31127;52.078;4.370;2023-06-22T01:56:40;23.13;;;12.20;;
45388;SDS011;31127;52.078;4.370;2023-06-22T02:01:50;20.55;;;10.80;;
45388;SDS011;31127;52.078;4.370;2023-06-22T02:06:47;21.75;;;11.77;;
45388;SDS011;31127;52.078;4.370;2023-06-22T02:11:44;22.25;;;11.70;;
45388;SDS011;31127;52.078;4.370;2023-06-22T02:16:40;25.77;;;13.13;;
45388;SDS011;31127;52.078;4.370;2023-06-22T02:21:37;28.55;;;14.15;;
45388;SDS011;31127;52.078;4.370;2023-06-22T02:26:33;25.15;;;12.57;;
45388;SDS011;31127;52.078;4.370;2023-06-22T02:31:31;23.65;;;13.40;;
45388;SDS011;31127;52.078;4.370;2023-06-22T02:36:26;25.75;;;13.52;;
45388;SDS011;31127;52.078;4.370;2023-06-22T02:41:25;23.75;;;13.20;;
45388;SDS011;31127;52.078;4.370;2023-06-22T02:46:21;20.92;;;12.52;;
45388;SDS011;31127;52.078;4.370;2023-06-22T02:51:18;26.23;;;14.65;;
45388;SDS011;31127;52.078;4.370;2023-06-22T02:56:14;24.23;;;11.80;;
45388;SDS011;31127;52.078;4.370;2023-06-22T03:01:09;21.05;;;12.02;;
45388;SDS011;31127;52.078;4.370;2023-06-22T03:06:06;28.33;;;13.75;;
45388;SDS011;31127;52.078;4.370;2023-06-22T03:11:01;35.40;;;19.07;;
45388;SDS011;31127;52.078;4.370;2023-06-22T03:15:57;30.80;;;16.53;;
45388;SDS011;31127;52.078;4.370;2023-06-22T03:20:52;24.70;;;14.27;;
45388;SDS011;31127;52.078;4.370;2023-06-22T03:25:48;30.75;;;16.20;;
45388;SDS011;31127;52.078;4.370;2023-06-22T03:30:43;35.83;;;17.00;;
45388;SDS011;31127;52.078;4.370;2023-06-22T03:35:39;36.22;;;16.40;;
45388;SDS011;31127;52.078;4.370;2023-06-22T03:40:34;34.88;;;16.95;;
45388;SDS011;31127;52.078;4.370;2023-06-22T03:45:30;33.95;;;17.40;;
45388;SDS011;31127;52.078;4.370;2023-06-22T03:50:27;31.90;;;16.02;;
45388;SDS011;31127;52.078;4.370;2023-06-22T03:55:22;37.63;;;17.42;;
45388;SDS011;31127;52.078;4.370;2023-06-22T04:00:18;33.40;;;16.60;;
45388;SDS011;31127;52.078;4.370;2023-06-22T04:05:13;32.17;;;16.20;;
45388;SDS011;31127;52.078;4.370;2023-06-22T04:10:09;40.80;;;18.45;;
45388;SDS011;31127;52.078;4.370;2023-06-22T04:15:04;36.30;;;18.05;;
45388;SDS011;31127;52.078;4.370;2023-06-22T04:20:00;29.48;;;16.80;;
45388;SDS011;31127;52.078;4.370;2023-06-22T04:24:55;28.70;;;17.17;;
45388;SDS011;31127;52.078;4.370;2023-06-22T04:29:51;29.48;;;16.35;;
45388;SDS011;31127;52.078;4.370;2023-06-22T04:34:47;27.13;;;16.35;;
45388;SDS011;31127;52.078;4.370;2023-06-22T04:39:42;30.50;;;16.60;;
45388;SDS011;31127;52.078;4.370;2023-06-22T04:44:38;28.85;;;15.77;;
45388;SDS011;31127;52.078;4.370;2023-06-22T04:49:35;34.20;;;17.17;;
45388;SDS011;31127;52.078;4.370;2023-06-22T04:54:35;28.20;;;13.93;;
45388;SDS011;31127;52.078;4.370;2023-06-22T04:59:31;30.05;;;16.25;;
45388;SDS011;31127;52.078;4.370;2023-06-22T05:04:27;42.80;;;17.50;;
45388;SDS011;31127;52.078;4.370;2023-06-22T05:09:33;31.60;;;16.05;;
45388;SDS011;31127;52.078;4.370;2023-06-22T05:14:29;32.15;;;16.65;;
45388;SDS011;31127;52.078;4.370;2023-06-22T05:19:25;30.63;;;16.08;;
45388;SDS011;31127;52.078;4.370;2023-06-22T05:24:26;29.85;;;16.00;;
45388;SDS011;31127;52.078;4.370;2023-06-22T05:29:22;26.75;;;14.27;;
45388;SDS011;31127;52.078;4.370;2023-06-22T05:34:18;24.10;;;14.88;;
45388;SDS011;31127;52.078;4.370;2023-06-22T05:39:13;26.38;;;13.63;;
45388;SDS011;31127;52.078;4.370;2023-06-22T05:44:09;19.90;;;12.55;;
45388;SDS011;31127;52.078;4.370;2023-06-22T05:49:04;22.77;;;12.03;;
45388;SDS011;31127;52.078;4.370;2023-06-22T05:54:00;22.80;;;13.13;;
45388;SDS011;31127;52.078;4.370;2023-06-22T05:58:55;20.08;;;12.02;;
45388;SDS011;31127;52.078;4.370;2023-06-22T06:03:51;25.88;;;11.65;;
45388;SDS011;31127;52.078;4.370;2023-06-22T06:08:48;19.25;;;11.32;;
45388;SDS011;31127;52.078;4.370;2023-06-22T06:13:43;20.48;;;11.75;;
45388;SDS011;31127;52.078;4.370;2023-06-22T06:18:39;22.42;;;11.77;;
45388;SDS011;31127;52.078;4.370;2023-06-22T06:23:34;24.88;;;13.23;;
45388;SDS011;31127;52.078;4.370;2023-06-22T06:28:30;21.48;;;11.55;;
45388;SDS011;31127;52.078;4.370;2023-06-22T06:33:25;23.38;;;12.52;;
45388;SDS011;31127;52.078;4.370;2023-06-22T06:38:21;20.15;;;12.02;;
45388;SDS011;31127;52.078;4.370;2023-06-22T06:43:17;20.40;;;10.88;;
45388;SDS011;31127;52.078;4.370;2023-06-22T06:48:13;18.80;;;9.90;;
45388;SDS011;31127;52.078;4.370;2023-06-22T06:53:08;17.40;;;9.85;;
45388;SDS011;31127;52.078;4.370;2023-06-22T06:58:24;15.90;;;8.43;;
45388;SDS011;31127;52.078;4.370;2023-06-22T07:03:20;15.02;;;8.57;;
45388;SDS011;31127;52.078;4.370;2023-06-22T07:08:15;15.93;;;8.03;;
45388;SDS011;31127;52.078;4.370;2023-06-22T07:13:11;10.70;;;4.63;;
45388;SDS011;31127;52.078;4.370;2023-06-22T07:18:24;10.30;;;6.53;;
45388;SDS011;31127;52.078;4.370;2023-06-22T07:23:21;11.07;;;6.40;;
45388;SDS011;31127;52.078;4.370;2023-06-22T07:28:17;7.88;;;5.60;;
45388;SDS011;31127;52.078;4.370;2023-06-22T07:33:12;5.85;;;3.78;;
45388;SDS011;31127;52.078;4.370;2023-06-22T07:38:07;8.30;;;4.33;;
45388;SDS011;31127;52.078;4.370;2023-06-22T07:43:04;6.20;;;3.15;;
45388;SDS011;31127;52.078;4.370;2023-06-22T07:48:20;7.60;;;3.58;;
45388;SDS011;31127;52.078;4.370;2023-06-22T07:53:16;7.18;;;3.85;;
45388;SDS011;31127;52.078;4.370;2023-06-22T07:58:12;7.00;;;3.13;;
45388;SDS011;31127;52.078;4.370;2023-06-22T08:03:08;5.53;;;2.97;;
45388;SDS011;31127;52.078;4.370;2023-06-22T08:08:03;6.38;;;2.30;;
45388;SDS011;31127;52.078;4.370;2023-06-22T08:12:59;5.72;;;2.67;;
45388;SDS011;31127;52.078;4.370;2023-06-22T08:17:55;4.40;;;2.50;;
45388;SDS011;31127;52.078;4.370;2023-06-22T08:22:50;2.42;;;1.77;;
45388;SDS011;31127;52.078;4.370;2023-06-22T08:27:46;3.30;;;1.88;;
45388;SDS011;31127;52.078;4.370;2023-06-22T08:32:44;4.70;;;2.03;;
45388;SDS011;31127;52.078;4.370;2023-06-22T08:37:40;4.65;;;2.78;;
45388;SDS011;31127;52.078;4.370;2023-06-22T08:42:36;5.57;;;3.40;;
45388;SDS011;31127;52.078;4.370;2023-06-22T08:47:32;3.35;;;2.30;;
45388;SDS011;31127;52.078;4.370;2023-06-22T08:52:27;4.35;;;2.22;;
45388;SDS011;31127;52.078;4.370;2023-06-22T08:57:23;5.35;;;3.22;;
45388;SDS011;31127;52.078;4.370;2023-06-22T09:02:19;3.88;;;2.80;;
45388;SDS011;31127;52.078;4.370;2023-06-22T09:07:15;6.55;;;3.50;;
45388;SDS011;31127;52.078;4.370;2023-06-22T09:17:15;3.15;;;2.10;;
45388;SDS011;31127;52.078;4.370;2023-06-22T09:22:10;3.92;;;2.65;;
45388;SDS011;31127;52.078;4.370;2023-06-22T09:27:06;7.03;;;3.33;;
45388;SDS011;31127;52.078;4.370;2023-06-22T09:32:01;7.30;;;2.92;;
45388;SDS011;31127;52.078;4.370;2023-06-22T09:36:57;4.13;;;2.90;;
45388;SDS011;31127;52.078;4.370;2023-06-22T09:41:57;4.38;;;2.80;;
45388;SDS011;31127;52.078;4.370;2023-06-22T09:47:13;7.22;;;3.45;;
45388;SDS011;31127;52.078;4.370;2023-06-22T09:52:09;12.15;;;6.13;;
45388;SDS011;31127;52.078;4.370;2023-06-22T09:57:06;9.98;;;4.50;;
45388;SDS011;31127;52.078;4.370;2023-06-22T10:02:02;6.03;;;3.38;;
45388;SDS011;31127;52.078;4.370;2023-06-22T10:06:58;10.63;;;4.82;;
45388;SDS011;31127;52.078;4.370;2023-06-22T10:11:53;7.97;;;3.90;;
45388;SDS011;31127;52.078;4.370;2023-06-22T10:16:49;7.03;;;3.38;;
45388;SDS011;31127;52.078;4.370;2023-06-22T10:21:44;6.43;;;4.20;;
45388;SDS011;31127;52.078;4.370;2023-06-22T10:26:40;10.17;;;5.60;;
45388;SDS011;31127;52.078;4.370;2023-06-22T10:31:35;8.40;;;5.03;;
45388;SDS011;31127;52.078;4.370;2023-06-22T10:36:31;8.43;;;4.90;;
45388;SDS011;31127;52.078;4.370;2023-06-22T10:41:26;8.07;;;3.75;;
45388;SDS011;31127;52.078;4.370;2023-06-22T10:46:25;7.13;;;4.63;;
45388;SDS011;31127;52.078;4.370;2023-06-22T10:51:21;5.30;;;3.33;;
45388;SDS011;31127;52.078;4.370;2023-06-22T10:56:17;5.40;;;3.20;;
45388;SDS011;31127;52.078;4.370;2023-06-22T11:01:13;5.65;;;3.30;;
45388;SDS011;31127;52.078;4.370;2023-06-22T11:06:09;5.93;;;3.22;;
45388;SDS011;31127;52.078;4.370;2023-06-22T11:11:25;6.60;;;4.03;;
45388;SDS011;31127;52.078;4.370;2023-06-22T11:16:21;3.78;;;2.97;;
45388;SDS011;31127;52.078;4.370;2023-06-22T11:21:17;6.43;;;4.15;;
45388;SDS011;31127;52.078;4.370;2023-06-22T11:26:13;5.70;;;3.80;;
45388;SDS011;31127;52.078;4.370;2023-06-22T11:31:08;8.38;;;4.88;;
45388;SDS011;31127;52.078;4.370;2023-06-22T11:36:24;7.25;;;5.80;;
45388;SDS011;31127;52.078;4.370;2023-06-22T11:41:20;7.55;;;4.68;;
45388;SDS011;31127;52.078;4.370;2023-06-22T11:46:16;11.35;;;5.55;;
45388;SDS011;31127;52.078;4.370;2023-06-22T11:51:12;6.97;;;4.60;;
45388;SDS011;31127;52.078;4.370;2023-06-22T11:56:07;10.00;;;6.83;;
45388;SDS011;31127;52.078;4.370;2023-06-22T12:01:03;12.43;;;7.15;;
45388;SDS011;31127;52.078;4.370;2023-06-22T12:05:59;9.05;;;5.70;;
45388;SDS011;31127;52.078;4.370;2023-06-22T12:10:54;8.02;;;5.05;;
45388;SDS011;31127;52.078;4.370;2023-06-22T12:16:09;7.70;;;4.55;;
45388;SDS011;31127;52.078;4.370;2023-06-22T12:21:05;7.57;;;4.88;;
45388;SDS011;31127;52.078;4.370;2023-06-22T12:26:01;16.95;;;4.32;;
45388;SDS011;31127;52.078;4.370;2023-06-22T12:30:56;7.30;;;4.72;;
45388;SDS011;31127;52.078;4.370;2023-06-22T12:35:52;8.23;;;6.47;;
45388;SDS011;31127;52.078;4.370;2023-06-22T12:40:47;8.57;;;6.05;;
45388;SDS011;31127;52.078;4.370;2023-06-22T12:46:03;14.77;;;6.97;;
45388;SDS011;31127;52.078;4.370;2023-06-22T12:50:58;10.98;;;5.75;;
45388;SDS011;31127;52.078;4.370;2023-06-22T12:55:57;10.27;;;5.15;;
45388;SDS011;31127;52.078;4.370;2023-06-22T13:00:53;11.75;;;6.10;;
45388;SDS011;31127;52.078;4.370;2023-06-22T13:05:50;8.50;;;6.03;;
45388;SDS011;31127;52.078;4.370;2023-06-22T13:10:45;9.27;;;6.88;;
45388;SDS011;31127;52.078;4.370;2023-06-22T13:15:41;15.50;;;6.78;;
45388;SDS011;31127;52.078;4.370;2023-06-22T13:20:37;10.70;;;6.07;;
45388;SDS011;31127;52.078;4.370;2023-06-22T13:25:32;14.65;;;7.03;;
45388;SDS011;31127;52.078;4.370;2023-06-22T13:30:28;16.67;;;8.23;;
45388;SDS011;31127;52.078;4.370;2023-06-22T13:35:24;9.77;;;5.72;;
45388;SDS011;31127;52.078;4.370;2023-06-22T13:40:23;11.77;;;7.00;;
45388;SDS011;31127;52.078;4.370;2023-06-22T13:45:19;11.13;;;6.43;;
45388;SDS011;31127;52.078;4.370;2023-06-22T13:50:15;11.27;;;7.72;;
45388;SDS011;31127;52.078;4.370;2023-06-22T13:55:10;10.13;;;6.28;;
45388;SDS011;31127;52.078;4.370;2023-06-22T14:00:07;10.77;;;5.07;;
45388;SDS011;31127;52.078;4.370;2023-06-22T14:05:38;6.67;;;4.80;;
45388;SDS011;31127;52.078;4.370;2023-06-22T14:10:33;9.15;;;6.07;;
45388;SDS011;31127;52.078;4.370;2023-06-22T14:15:29;7.25;;;5.47;;
45388;SDS011;31127;52.078;4.370;2023-06-22T14:20:25;8.45;;;5.18;;
45388;SDS011;31127;52.078;4.370;2023-06-22T14:25:21;15.25;;;5.65;;
45388;SDS011;31127;52.078;4.370;2023-06-22T14:30:16;11.65;;;8.25;;
45388;SDS011;31127;52.078;4.370;2023-06-22T14:35:12;10.55;;;6.82;;
45388;SDS011;31127;52.078;4.370;2023-06-22T14:40:08;9.88;;;6.13;;
45388;SDS011;31127;52.078;4.370;2023-06-22T14:45:03;9.50;;;4.65;;
45388;SDS011;31127;52.078;4.370;2023-06-22T14:49:59;12.20;;;7.32;;
45388;SDS011;31127;52.078;4.370;2023-06-22T14:54:57;11.75;;;6.90;;
45388;SDS011;31127;52.078;4.370;2023-06-22T14:59:53;11.55;;;7.43;;
45388;SDS011;31127;52.078;4.370;2023-06-22T15:04:49;12.65;;;8.40;;
45388;SDS011;31127;52.078;4.370;2023-06-22T15:09:48;9.65;;;7.05;;
45388;SDS011;31127;52.078;4.370;2023-06-22T15:14:44;13.23;;;7.43;;
45388;SDS011;31127;52.078;4.370;2023-06-22T15:19:39;11.30;;;6.70;;
45388;SDS011;31127;52.078;4.370;2023-06-22T15:24:35;11.57;;;6.10;;
45388;SDS011;31127;52.078;4.370;2023-06-22T15:29:30;13.52;;;7.32;;
45388;SDS011;31127;52.078;4.370;2023-06-22T15:34:29;9.40;;;4.15;;
45388;SDS011;31127;52.078;4.370;2023-06-22T15:39:24;9.18;;;5.25;;
45388;SDS011;31127;52.078;4.370;2023-06-22T15:44:21;6.88;;;4.10;;
45388;SDS011;31127;52.078;4.370;2023-06-22T15:49:17;8.98;;;5.80;;
45388;SDS011;31127;52.078;4.370;2023-06-22T15:54:13;8.13;;;3.60;;
45388;SDS011;31127;52.078;4.370;2023-06-22T15:59:08;12.18;;;5.30;;
45388;SDS011;31127;52.078;4.370;2023-06-22T16:04:04;9.75;;;5.63;;
45388;SDS011;31127;52.078;4.370;2023-06-22T16:09:00;15.82;;;4.95;;
45388;SDS011;31127;52.078;4.370;2023-06-22T16:13:55;9.43;;;4.90;;
45388;SDS011;31127;52.078;4.370;2023-06-22T16:18:52;9.00;;;4.55;;
45388;SDS011;31127;52.078;4.370;2023-06-22T16:23:48;4.43;;;3.58;;
45388;SDS011;31127;52.078;4.370;2023-06-22T16:28:44;6.53;;;3.85;;
45388;SDS011;31127;52.078;4.370;2023-06-22T16:33:39;6.07;;;3.03;;
45388;SDS011;31127;52.078;4.370;2023-06-22T16:38:42;9.98;;;4.25;;
45388;SDS011;31127;52.078;4.370;2023-06-22T16:43:38;7.10;;;3.38;;
45388;SDS011;31127;52.078;4.370;2023-06-22T16:48:56;10.63;;;3.78;;
45388;SDS011;31127;52.078;4.370;2023-06-22T16:53:52;4.50;;;2.80;;
45388;SDS011;31127;52.078;4.370;2023-06-22T16:58:50;3.47;;;1.95;;
45388;SDS011;31127;52.078;4.370;2023-06-22T17:04:09;6.82;;;2.88;;
45388;SDS011;31127;52.078;4.370;2023-06-22T17:09:25;6.32;;;2.08;;
45388;SDS011;31127;52.078;4.370;2023-06-22T17:14:22;4.43;;;2.10;;
45388;SDS011;31127;52.078;4.370;2023-06-22T17:19:17;5.68;;;2.67;;
45388;SDS011;31127;52.078;4.370;2023-06-22T17:24:17;3.35;;;1.85;;
45388;SDS011;31127;52.078;4.370;2023-06-22T17:29:12;7.28;;;1.90;;
45388;SDS011;31127;52.078;4.370;2023-06-22T17:34:10;9.82;;;3.40;;
45388;SDS011;31127;52.078;4.370;2023-06-22T17:39:06;6.05;;;2.17;;
45388;SDS011;31127;52.078;4.370;2023-06-22T17:44:03;4.43;;;2.03;;
45388;SDS011;31127;52.078;4.370;2023-06-22T17:48:59;4.30;;;1.98;;
45388;SDS011;31127;52.078;4.370;2023-06-22T17:53:55;5.17;;;1.90;;
45388;SDS011;31127;52.078;4.370;2023-06-22T17:58:52;9.25;;;2.00;;
45388;SDS011;31127;52.078;4.370;2023-06-22T18:03:47;5.28;;;2.25;;
45388;SDS011;31127;52.078;4.370;2023-06-22T18:08:43;5.43;;;2.03;;
45388;SDS011;31127;52.078;4.370;2023-06-22T18:13:38;5.20;;;1.77;;
45388;SDS011;31127;52.078;4.370;2023-06-22T18:18:35;3.13;;;1.73;;
45388;SDS011;31127;52.078;4.370;2023-06-22T18:23:51;7.25;;;3.45;;
45388;SDS011;31127;52.078;4.370;2023-06-22T18:28:47;4.00;;;2.20;;
45388;SDS011;31127;52.078;4.370;2023-06-22T18:34:04;5.00;;;2.25;;
45388;SDS011;31127;52.078;4.370;2023-06-22T18:39:02;4.50;;;1.80;;
45388;SDS011;31127;52.078;4.370;2023-06-22T18:44:19;6.65;;;1.95;;
45388;SDS011;31127;52.078;4.370;2023-06-22T18:49:20;3.25;;;2.00;;
45388;SDS011;31127;52.078;4.370;2023-06-22T18:54:24;4.18;;;1.98;;
45388;SDS011;31127;52.078;4.370;2023-06-22T19:00:24;5.65;;;2.50;;
45388;SDS011;31127;52.078;4.370;2023-06-22T19:04:50;11.57;;;2.72;;
45388;SDS011;31127;52.078;4.370;2023-06-22T19:15:14;7.72;;;2.92;;
45388;SDS011;31127;52.078;4.370;2023-06-22T19:20:32;6.30;;;2.85;;
45388;SDS011;31127;52.078;4.370;2023-06-22T19:25:29;8.18;;;3.08;;
45388;SDS011;31127;52.078;4.370;2023-06-22T19:30:28;10.93;;;3.72;;
45388;SDS011;31127;52.078;4.370;2023-06-22T19:35:25;6.78;;;2.67;;
45388;SDS011;31127;52.078;4.370;2023-06-22T19:40:21;10.90;;;3.50;;
45388;SDS011;31127;52.078;4.370;2023-06-22T19:45:17;11.40;;;4.38;;
45388;SDS011;31127;52.078;4.370;2023-06-22T19:50:12;8.55;;;3.53;;
45388;SDS011;31127;52.078;4.370;2023-06-22T19:55:09;14.70;;;3.50;;
45388;SDS011;31127;52.078;4.370;2023-06-22T20:00:09;7.18;;;3.60;;
45388;SDS011;31127;52.078;4.370;2023-06-22T20:05:08;6.93;;;3.40;;
45388;SDS011;31127;52.078;4.370;2023-06-22T20:10:23;8.77;;;3.28;;
45388;SDS011;31127;52.078;4.370;2023-06-22T20:20:26;8.30;;;3.30;;
45388;SDS011;31127;52.078;4.370;2023-06-22T20:25:22;9.90;;;3.08;;
45388;SDS011;31127;52.078;4.370;2023-06-22T20:30:19;9.30;;;4.68;;
45388;SDS011;31127;52.078;4.370;2023-06-22T20:35:15;7.40;;;3.47;;
45388;SDS011;31127;52.078;4.370;2023-06-22T20:40:30;8.23;;;2.90;;
45388;SDS011;31127;52.078;4.370;2023-06-22T20:45:26;8.95;;;3.58;;
45388;SDS011;31127;52.078;4.370;2023-06-22T20:50:23;10.55;;;3.00;;
45388;SDS011;31127;52.078;4.370;2023-06-22T20:55:18;7.47;;;2.83;;
45388;SDS011;31127;52.078;4.370;2023-06-22T21:00:34;8.43;;;3.00;;
45388;SDS011;31127;52.078;4.370;2023-06-22T21:05:30;10.82;;;2.97;;
45388;SDS011;31127;52.078;4.370;2023-06-22T21:10:45;8.57;;;2.53;;
45388;SDS011;31127;52.078;4.370;2023-06-22T21:15:41;9.60;;;2.97;;
45388;SDS011;31127;52.078;4.370;2023-06-22T21:20:37;6.55;;;3.17;;
45388;SDS011;31127;52.078;4.370;2023-06-22T21:25:53;6.85;;;2.83;;
45388;SDS011;31127;52.078;4.370;2023-06-22T21:30:48;5.82;;;2.75;;
45388;SDS011;31127;52.078;4.370;2023-06-22T21:35:45;9.30;;;3.83;;
45388;SDS011;31127;52.078;4.370;2023-06-22T21:40:41;5.93;;;2.92;;
45388;SDS011;31127;52.078;4.370;2023-06-22T21:45:37;9.50;;;3.55;;
45388;SDS011;31127;52.078;4.370;2023-06-22T21:50:35;5.40;;;2.65;;
45388;SDS011;31127;52.078;4.370;2023-06-22T21:55:31;4.93;;;2.63;;
45388;SDS011;31127;52.078;4.370;2023-06-22T22:00:27;7.28;;;2.22;;
45388;SDS011;31127;52.078;4.370;2023-06-22T22:05:24;8.80;;;3.28;;
45388;SDS011;31127;52.078;4.370;2023-06-22T22:10:20;6.72;;;3.25;;
45388;SDS011;31127;52.078;4.370;2023-06-22T22:15:16;3.75;;;2.83;;
45388;SDS011;31127;52.078;4.370;2023-06-22T22:20:12;9.73;;;3.65;;
45388;SDS011;31127;52.078;4.370;2023-06-22T22:25:07;10.85;;;4.03;;
45388;SDS011;31127;52.078;4.370;2023-06-22T22:30:03;10.82;;;3.78;;
45388;SDS011;31127;52.078;4.370;2023-06-22T22:34:59;7.72;;;3.83;;
45388;SDS011;31127;52.078;4.370;2023-06-22T22:39:55;6.47;;;3.42;;
45388;SDS011;31127;52.078;4.370;2023-06-22T22:44:50;11.97;;;4.57;;
45388;SDS011;31127;52.078;4.370;2023-06-22T22:49:46;8.07;;;4.32;;
45388;SDS011;31127;52.078;4.370;2023-06-22T22:54:41;8.80;;;4.22;;
45388;SDS011;31127;52.078;4.370;2023-06-22T22:59:38;12.18;;;4.68;;
45388;SDS011;31127;52.078;4.370;2023-06-22T23:04:34;7.72;;;4.38;;
45388;SDS011;31127;52.078;4.370;2023-06-22T23:09:29;10.57;;;4.05;;
45388;SDS011;31127;52.078;4.370;2023-06-22T23:14:25;6.07;;;3.22;;
45388;SDS011;31127;52.078;4.370;2023-06-22T23:19:21;4.45;;;2.90;;
45388;SDS011;31127;52.078;4.370;2023-06-22T23:24:16;7.97;;;2.88;;
45388;SDS011;31127;52.078;4.370;2023-06-22T23:29:12;5.20;;;3.50;;
45388;SDS011;31127;52.078;4.370;2023-06-22T23:34:07;8.60;;;4.03;;
45388;SDS011;31127;52.078;4.370;2023-06-22T23:39:11;6.50;;;4.05;;
45388;SDS011;31127;52.078;4.370;2023-06-22T23:44:07;9.75;;;4.80;;
45388;SDS011;31127;52.078;4.370;2023-06-22T23:49:03;9.27;;;4.95;;
45388;SDS011;31127;52.078;4.370;2023-06-22T23:53:59;9.25;;;5.68;;
45388;SDS011;31127;52.078;4.370;2023-06-22T23:58:54;13.63;;;7.10;;
